createdAt,value
2023-02-01T00:00:33.634Z,1012.35
2023-02-01T00:01:33.652Z,1012.31
2023-02-01T00:02:33.618Z,1012.34
2023-02-01T00:03:33.665Z,1012.30
2023-02-01T00:04:33.539Z,1012.31
2023-02-01T00:05:33.588Z,1012.29
2023-02-01T00:06:33.554Z,1012.35
2023-02-01T00:07:33.515Z,1012.36
2023-02-01T00:08:33.516Z,1012.26
2023-02-01T00:09:33.492Z,1012.26
2023-02-01T00:10:33.452Z,1012.25
2023-02-01T00:11:33.500Z,1012.27
2023-02-01T00:12:33.477Z,1012.28
2023-02-01T00:13:33.476Z,1012.25
2023-02-01T00:14:33.430Z,1012.28
2023-02-01T00:15:33.489Z,1012.26
2023-02-01T00:16:33.409Z,1012.31
2023-02-01T00:17:33.390Z,1012.26
2023-02-01T00:18:33.375Z,1012.28
2023-02-01T00:19:33.396Z,1012.32
2023-02-01T00:20:33.326Z,1012.30
2023-02-01T00:21:33.370Z,1012.40
2023-02-01T00:22:33.328Z,1012.33
2023-02-01T00:23:33.324Z,1012.28
2023-02-01T00:24:33.304Z,1012.28
2023-02-01T00:25:33.302Z,1012.29
2023-02-01T00:26:33.292Z,1012.26
2023-02-01T00:27:33.223Z,1012.26
2023-02-01T00:28:33.279Z,1012.16
2023-02-01T00:29:33.222Z,1012.22
2023-02-01T00:30:33.368Z,1012.16
2023-02-01T00:31:33.386Z,1012.20
2023-02-01T00:32:33.212Z,1012.14
2023-02-01T00:33:33.195Z,1012.17
2023-02-01T00:34:33.211Z,1012.08
2023-02-01T00:35:33.135Z,1012.10
2023-02-01T00:36:33.187Z,1012.06
2023-02-01T00:37:33.109Z,1012.10
2023-02-01T00:38:33.108Z,1012.01
2023-02-01T00:39:33.121Z,1012.04
2023-02-01T00:40:33.116Z,1012.11
2023-02-01T00:41:33.032Z,1011.99
2023-02-01T00:42:33.098Z,1012.07
2023-02-01T00:43:33.057Z,1012.02
2023-02-01T00:44:33.026Z,1012.05
2023-02-01T00:45:33.017Z,1012.07
2023-02-01T00:46:33.037Z,1011.95
2023-02-01T00:47:32.971Z,1012.01
2023-02-01T00:48:33.058Z,1011.95
2023-02-01T00:49:32.951Z,1011.98
2023-02-01T00:50:32.950Z,1011.93
2023-02-01T00:51:32.940Z,1011.99
2023-02-01T00:52:32.941Z,1011.96
2023-02-01T00:53:32.918Z,1012.09
2023-02-01T00:54:32.961Z,1011.91
2023-02-01T00:55:32.852Z,1011.91
2023-02-01T00:56:32.864Z,1011.96
2023-02-01T00:57:32.882Z,1011.98
2023-02-01T00:58:32.882Z,1011.99
2023-02-01T00:59:32.810Z,1011.90
2023-02-01T01:00:32.932Z,1011.95
2023-02-01T01:01:32.775Z,1011.93
2023-02-01T01:02:32.796Z,1011.90
2023-02-01T01:03:32.798Z,1011.84
2023-02-01T01:04:32.779Z,1011.89
2023-02-01T01:05:32.779Z,1011.87
2023-02-01T01:06:32.815Z,1011.84
2023-02-01T01:07:32.695Z,1011.88
2023-02-01T01:08:32.756Z,1011.87
2023-02-01T01:09:32.676Z,1011.86
2023-02-01T01:10:32.700Z,1011.83
2023-02-01T01:11:32.678Z,1011.76
2023-02-01T01:12:32.695Z,1011.88
2023-02-01T01:13:32.661Z,1011.92
2023-02-01T01:14:32.612Z,1012.03
2023-02-01T01:15:32.635Z,1012.01
2023-02-01T01:16:32.572Z,1011.97
2023-02-01T01:17:32.619Z,1011.96
2023-02-01T01:18:32.627Z,1011.91
2023-02-01T01:19:32.569Z,1012.02
2023-02-01T01:20:32.556Z,1011.88
2023-02-01T01:21:32.537Z,1012.03
2023-02-01T01:22:32.491Z,1012.00
2023-02-01T01:23:32.558Z,1012.08
2023-02-01T01:24:32.593Z,1012.02
2023-02-01T01:25:32.535Z,1011.97
2023-02-01T01:26:32.564Z,1012.05
2023-02-01T01:27:32.470Z,1011.92
2023-02-01T01:28:32.427Z,1012.00
2023-02-01T01:29:32.457Z,1012.01
2023-02-01T01:30:32.456Z,1011.88
2023-02-01T01:31:32.461Z,1011.89
2023-02-01T01:32:32.402Z,1011.97
2023-02-01T01:33:32.415Z,1011.92
2023-02-01T01:34:32.341Z,1011.90
2023-02-01T01:35:32.383Z,1011.92
2023-02-01T01:36:32.424Z,1011.90
2023-02-01T01:37:32.373Z,1011.83
2023-02-01T01:38:32.329Z,1011.84
2023-02-01T01:39:32.315Z,1011.90
2023-02-01T01:40:32.303Z,1011.87
2023-02-01T01:41:32.276Z,1011.80
2023-02-01T01:42:32.264Z,1011.76
2023-02-01T01:43:32.297Z,1011.81
2023-02-01T01:44:33.192Z,1011.78
2023-02-01T01:45:32.219Z,1011.79
2023-02-01T01:46:32.208Z,1011.71
2023-02-01T01:47:32.235Z,1011.84
2023-02-01T01:48:32.215Z,1011.81
2023-02-01T01:49:32.205Z,1011.80
2023-02-01T01:50:32.160Z,1011.78
2023-02-01T01:51:32.135Z,1011.74
2023-02-01T01:52:32.137Z,1011.68
2023-02-01T01:53:32.124Z,1011.60
2023-02-01T01:54:32.136Z,1011.60
2023-02-01T01:55:32.117Z,1011.62
2023-02-01T01:56:32.056Z,1011.50
2023-02-01T01:57:32.095Z,1011.50
2023-02-01T01:58:32.056Z,1011.48
2023-02-01T01:59:32.053Z,1011.50
2023-02-01T02:00:32.054Z,1011.38
2023-02-01T02:01:32.073Z,1011.54
2023-02-01T02:02:32.006Z,1011.48
2023-02-01T02:03:32.014Z,1011.38
2023-02-01T02:04:31.987Z,1011.36
2023-02-01T02:05:31.957Z,1011.42
2023-02-01T02:06:32.025Z,1011.40
2023-02-01T02:07:31.968Z,1011.40
2023-02-01T02:08:31.930Z,1011.41
2023-02-01T02:09:31.960Z,1011.48
2023-02-01T02:10:31.898Z,1011.37
2023-02-01T02:11:31.891Z,1011.38
2023-02-01T02:12:31.924Z,1011.36
2023-02-01T02:13:31.865Z,1011.36
2023-02-01T02:14:31.824Z,1011.39
2023-02-01T02:15:31.893Z,1011.25
2023-02-01T02:16:31.821Z,1011.32
2023-02-01T02:17:31.831Z,1011.25
2023-02-01T02:18:31.840Z,1011.26
2023-02-01T02:19:31.795Z,1011.27
2023-02-01T02:20:31.766Z,1011.27
2023-02-01T02:21:31.763Z,1011.12
2023-02-01T02:22:31.718Z,1011.27
2023-02-01T02:23:31.774Z,1011.29
2023-02-01T02:24:31.800Z,1011.15
2023-02-01T02:25:31.730Z,1011.22
2023-02-01T02:26:31.749Z,1011.19
2023-02-01T02:27:31.686Z,1011.12
2023-02-01T02:28:31.667Z,1011.11
2023-02-01T02:29:31.641Z,1011.07
2023-02-01T02:30:31.702Z,1011.11
2023-02-01T02:31:31.679Z,1011.06
2023-02-01T02:32:31.612Z,1011.04
2023-02-01T02:33:31.654Z,1011.08
2023-02-01T02:34:31.562Z,1011.04
2023-02-01T02:35:31.600Z,1010.96
2023-02-01T02:36:31.551Z,1011.03
2023-02-01T02:37:31.590Z,1011.05
2023-02-01T02:38:31.543Z,1011.11
2023-02-01T02:39:31.520Z,1011.07
2023-02-01T02:40:31.500Z,1011.01
2023-02-01T02:41:31.483Z,1011.03
2023-02-01T02:42:31.487Z,1011.04
2023-02-01T02:43:31.490Z,1011.01
2023-02-01T02:44:31.422Z,1011.06
2023-02-01T02:45:31.515Z,1010.92
2023-02-01T02:46:31.429Z,1011.02
2023-02-01T02:47:31.410Z,1010.98
2023-02-01T02:48:31.496Z,1010.97
2023-02-01T02:49:31.424Z,1010.85
2023-02-01T02:50:31.385Z,1011.04
2023-02-01T02:51:31.376Z,1010.97
2023-02-01T02:52:31.351Z,1010.93
2023-02-01T02:53:31.335Z,1010.84
2023-02-01T02:54:31.317Z,1010.86
2023-02-01T02:55:31.330Z,1010.90
2023-02-01T02:56:31.268Z,1010.90
2023-02-01T02:57:31.317Z,1010.90
2023-02-01T02:58:31.257Z,1010.93
2023-02-01T02:59:31.266Z,1010.89
2023-02-01T03:00:31.277Z,1010.93
2023-02-01T03:01:31.236Z,1010.87
2023-02-01T03:02:31.241Z,1010.90
2023-02-01T03:03:31.244Z,1010.94
2023-02-01T03:04:31.185Z,1010.95
2023-02-01T03:05:31.199Z,1010.96
2023-02-01T03:06:31.261Z,1010.97
2023-02-01T03:07:31.186Z,1010.79
2023-02-01T03:08:31.125Z,1010.80
2023-02-01T03:09:31.143Z,1010.88
2023-02-01T03:10:31.118Z,1010.84
2023-02-01T03:11:31.099Z,1010.80
2023-02-01T03:12:31.102Z,1010.75
2023-02-01T03:13:31.080Z,1010.77
2023-02-01T03:14:31.040Z,1010.68
2023-02-01T03:15:31.075Z,1010.72
2023-02-01T03:16:31.084Z,1010.61
2023-02-01T03:17:31.052Z,1010.66
2023-02-01T03:18:31.027Z,1010.67
2023-02-01T03:19:30.991Z,1010.65
2023-02-01T03:20:30.981Z,1010.69
2023-02-01T03:21:30.966Z,1010.50
2023-02-01T03:22:30.920Z,1010.62
2023-02-01T03:23:30.985Z,1010.67
2023-02-01T03:24:30.924Z,1010.64
2023-02-01T03:25:30.930Z,1010.56
2023-02-01T03:26:30.944Z,1010.57
2023-02-01T03:27:30.876Z,1010.51
2023-02-01T03:28:30.862Z,1010.41
2023-02-01T03:29:30.868Z,1010.37
2023-02-01T03:30:30.936Z,1010.43
2023-02-01T03:31:30.875Z,1010.24
2023-02-01T03:32:30.786Z,1010.27
2023-02-01T03:33:30.833Z,1010.29
2023-02-01T03:34:30.793Z,1010.39
2023-02-01T03:35:30.805Z,1010.36
2023-02-01T03:36:30.877Z,1010.33
2023-02-01T03:37:30.805Z,1010.29
2023-02-01T03:38:30.733Z,1010.24
2023-02-01T03:39:30.755Z,1010.25
2023-02-01T03:40:30.705Z,1010.19
2023-02-01T03:41:30.719Z,1010.20
2023-02-01T03:42:30.703Z,1010.23
2023-02-01T03:43:30.710Z,1010.34
2023-02-01T03:44:30.672Z,1010.25
2023-02-01T03:45:30.688Z,1010.32
2023-02-01T03:46:30.634Z,1010.26
2023-02-01T03:47:30.620Z,1010.24
2023-02-01T03:48:30.665Z,1010.28
2023-02-01T03:49:30.614Z,1010.31
2023-02-01T03:50:30.569Z,1010.23
2023-02-01T03:51:30.600Z,1010.27
2023-02-01T03:52:30.549Z,1010.29
2023-02-01T03:53:30.543Z,1010.37
2023-02-01T03:54:30.523Z,1010.26
2023-02-01T03:55:30.563Z,1010.14
2023-02-01T03:56:30.487Z,1010.21
2023-02-01T03:57:30.511Z,1010.19
2023-02-01T03:58:30.501Z,1010.19
2023-02-01T03:59:30.489Z,1010.26
2023-02-01T04:00:30.489Z,1010.22
2023-02-01T04:01:30.543Z,1010.21
2023-02-01T04:02:30.552Z,1010.25
2023-02-01T04:03:30.452Z,1010.18
2023-02-01T04:04:30.365Z,1010.21
2023-02-01T04:05:30.401Z,1010.22
2023-02-01T04:06:30.395Z,1010.30
2023-02-01T04:07:30.366Z,1010.21
2023-02-01T04:08:34.666Z,1010.23
2023-02-01T04:09:30.387Z,1010.22
2023-02-01T04:10:30.342Z,1010.16
2023-02-01T04:11:30.321Z,1010.12
2023-02-01T04:12:30.404Z,1010.27
2023-02-01T04:13:30.296Z,1010.27
2023-02-01T04:14:30.240Z,1010.00
2023-02-01T04:15:30.294Z,1010.22
2023-02-01T04:16:31.200Z,1010.22
2023-02-01T04:17:30.266Z,1010.16
2023-02-01T04:18:30.261Z,1010.22
2023-02-01T04:19:30.210Z,1010.25
2023-02-01T04:20:30.197Z,1010.14
2023-02-01T04:21:30.206Z,1010.19
2023-02-01T04:22:30.139Z,1010.21
2023-02-01T04:23:32.126Z,1010.12
2023-02-01T04:24:30.153Z,1010.14
2023-02-01T04:25:30.155Z,1010.11
2023-02-01T04:26:30.161Z,1010.08
2023-02-01T04:27:30.106Z,1010.06
2023-02-01T04:28:30.125Z,1010.11
2023-02-01T04:29:30.091Z,1010.10
2023-02-01T04:30:30.223Z,1010.11
2023-02-01T04:31:30.162Z,1010.09
2023-02-01T04:32:30.011Z,1010.03
2023-02-01T04:33:30.057Z,1010.06
2023-02-01T04:34:29.998Z,1010.00
2023-02-01T04:35:29.996Z,1010.00
2023-02-01T04:36:30.089Z,1010.00
2023-02-01T04:37:29.954Z,1010.11
2023-02-01T04:38:29.938Z,1009.99
2023-02-01T04:39:29.970Z,1010.04
2023-02-01T04:40:29.932Z,1010.00
2023-02-01T04:41:29.905Z,1010.02
2023-02-01T04:42:29.977Z,1009.92
2023-02-01T04:43:29.921Z,1010.00
2023-02-01T04:44:29.847Z,1009.94
2023-02-01T04:45:29.881Z,1009.99
2023-02-01T04:46:29.907Z,1010.00
2023-02-01T04:47:29.844Z,1009.94
2023-02-01T04:48:29.921Z,1009.90
2023-02-01T04:49:29.802Z,1009.88
2023-02-01T04:50:29.763Z,1009.93
2023-02-01T04:51:29.802Z,1009.90
2023-02-01T04:52:29.757Z,1009.83
2023-02-01T04:53:29.776Z,1009.87
2023-02-01T04:54:29.763Z,1009.80
2023-02-01T04:55:29.725Z,1009.80
2023-02-01T04:56:29.679Z,1009.82
2023-02-01T04:57:29.725Z,1009.81
2023-02-01T04:58:29.688Z,1009.82
2023-02-01T04:59:29.680Z,1009.80
2023-02-01T05:00:29.699Z,1009.79
2023-02-01T05:01:29.713Z,1009.65
2023-02-01T05:02:29.644Z,1009.73
2023-02-01T05:03:29.646Z,1009.66
2023-02-01T05:04:29.604Z,1009.75
2023-02-01T05:05:29.658Z,1009.69
2023-02-01T05:06:29.616Z,1009.75
2023-02-01T05:07:29.580Z,1009.70
2023-02-01T05:08:29.555Z,1009.71
2023-02-01T05:09:29.615Z,1009.83
2023-02-01T05:10:29.513Z,1009.82
2023-02-01T05:11:29.564Z,1009.75
2023-02-01T05:12:29.549Z,1009.69
2023-02-01T05:13:29.485Z,1009.69
2023-02-01T05:14:29.453Z,1009.72
2023-02-01T05:15:29.546Z,1009.66
2023-02-01T05:16:29.469Z,1009.65
2023-02-01T05:17:29.475Z,1009.65
2023-02-01T05:18:29.458Z,1009.59
2023-02-01T05:19:29.451Z,1009.58
2023-02-01T05:20:29.401Z,1009.65
2023-02-01T05:21:29.388Z,1009.64
2023-02-01T05:22:29.336Z,1009.68
2023-02-01T05:23:29.388Z,1009.68
2023-02-01T05:24:29.374Z,1009.63
2023-02-01T05:25:29.357Z,1009.64
2023-02-01T05:26:29.329Z,1009.65
2023-02-01T05:27:29.296Z,1009.67
2023-02-01T05:28:29.340Z,1009.65
2023-02-01T05:29:29.244Z,1009.62
2023-02-01T05:30:29.305Z,1009.64
2023-02-01T05:31:29.314Z,1009.49
2023-02-01T05:32:29.311Z,1009.53
2023-02-01T05:33:29.224Z,1009.53
2023-02-01T05:34:29.243Z,1009.53
2023-02-01T05:35:29.173Z,1009.60
2023-02-01T05:36:29.321Z,1009.42
2023-02-01T05:37:29.137Z,1009.44
2023-02-01T05:38:29.151Z,1009.48
2023-02-01T05:39:29.154Z,1009.52
2023-02-01T05:40:29.137Z,1009.52
2023-02-01T05:41:29.116Z,1009.50
2023-02-01T05:42:29.255Z,1009.49
2023-02-01T05:43:29.071Z,1009.43
2023-02-01T05:44:29.072Z,1009.51
2023-02-01T05:45:29.071Z,1009.35
2023-02-01T05:46:29.104Z,1009.58
2023-02-01T05:47:29.011Z,1009.37
2023-02-01T05:48:29.173Z,1009.35
2023-02-01T05:49:29.027Z,1009.54
2023-02-01T05:50:29.027Z,1009.49
2023-02-01T05:51:28.999Z,1009.44
2023-02-01T05:52:28.985Z,1009.57
2023-02-01T05:53:28.963Z,1009.64
2023-02-01T05:54:29.091Z,1009.51
2023-02-01T05:55:28.905Z,1009.61
2023-02-01T05:56:28.949Z,1009.59
2023-02-01T05:57:28.895Z,1009.57
2023-02-01T05:59:09.506Z,1009.47
2023-02-01T06:00:04.235Z,1009.46
2023-02-01T06:01:04.164Z,1009.50
2023-02-01T06:02:04.110Z,1009.48
2023-02-01T06:03:04.141Z,1009.57
2023-02-01T06:04:04.202Z,1009.56
2023-02-01T06:05:04.060Z,1009.58
2023-02-01T06:06:04.136Z,1009.59
2023-02-01T06:07:04.058Z,1009.51
2023-02-01T06:08:04.048Z,1009.42
2023-02-01T06:09:04.028Z,1009.53
2023-02-01T06:10:04.018Z,1009.65
2023-02-01T06:11:03.979Z,1009.64
2023-02-01T06:12:04.708Z,1009.61
2023-02-01T06:13:03.988Z,1009.67
2023-02-01T06:14:04.015Z,1009.63
2023-02-01T06:15:03.988Z,1009.64
2023-02-01T06:16:04.260Z,1009.54
2023-02-01T06:17:03.972Z,1009.59
2023-02-01T06:18:04.083Z,1009.64
2023-02-01T06:19:03.908Z,1009.58
2023-02-01T06:20:03.907Z,1009.67
2023-02-01T06:21:03.905Z,1009.64
2023-02-01T06:22:03.869Z,1009.72
2023-02-01T06:23:03.876Z,1009.61
2023-02-01T06:24:03.912Z,1009.73
2023-02-01T06:25:03.825Z,1009.65
2023-02-01T06:26:04.727Z,1009.70
2023-02-01T06:27:03.829Z,1009.63
2023-02-01T06:28:03.790Z,1009.67
2023-02-01T06:29:03.763Z,1009.71
2023-02-01T06:30:03.816Z,1009.71
2023-02-01T06:31:03.895Z,1009.72
2023-02-01T06:32:03.763Z,1009.74
2023-02-01T06:33:03.727Z,1009.70
2023-02-01T06:34:03.726Z,1009.79
2023-02-01T06:35:03.988Z,1009.78
2023-02-01T06:36:03.754Z,1009.73
2023-02-01T06:37:03.647Z,1009.62
2023-02-01T06:38:04.593Z,1009.67
2023-02-01T06:39:03.645Z,1009.73
2023-02-01T06:40:03.639Z,1009.62
2023-02-01T06:41:03.620Z,1009.72
2023-02-01T06:42:03.619Z,1009.63
2023-02-01T06:43:03.566Z,1009.61
2023-02-01T06:44:03.603Z,1009.68
2023-02-01T06:45:03.571Z,1009.71
2023-02-01T06:46:03.603Z,1009.66
2023-02-01T06:47:03.567Z,1009.67
2023-02-01T06:48:03.627Z,1009.70
2023-02-01T06:49:04.319Z,1009.60
2023-02-01T06:50:03.801Z,1009.76
2023-02-01T06:51:03.480Z,1009.69
2023-02-01T06:52:03.480Z,1009.76
2023-02-01T06:53:03.471Z,1009.90
2023-02-01T06:54:03.482Z,1009.73
2023-02-01T06:55:03.460Z,1009.73
2023-02-01T06:56:04.412Z,1009.84
2023-02-01T06:57:03.440Z,1009.69
2023-02-01T06:58:03.372Z,1009.80
2023-02-01T06:59:03.400Z,1009.75
2023-02-01T07:00:03.424Z,1009.78
2023-02-01T07:01:03.438Z,1009.80
2023-02-01T07:02:03.357Z,1009.77
2023-02-01T07:03:03.336Z,1009.79
2023-02-01T07:04:03.346Z,1009.87
2023-02-01T07:05:03.312Z,1009.79
2023-02-01T07:06:04.502Z,1009.88
2023-02-01T07:07:03.302Z,1009.82
2023-02-01T07:08:03.270Z,1009.82
2023-02-01T07:09:03.271Z,1009.79
2023-02-01T07:10:03.206Z,1009.79
2023-02-01T07:11:03.229Z,1009.80
2023-02-01T07:12:03.385Z,1009.92
2023-02-01T07:13:03.508Z,1009.87
2023-02-01T07:14:03.197Z,1009.83
2023-02-01T07:15:03.195Z,1009.83
2023-02-01T07:16:03.215Z,1009.79
2023-02-01T07:17:03.156Z,1009.80
2023-02-01T07:18:03.161Z,1009.81
2023-02-01T07:19:05.147Z,1009.86
2023-02-01T07:20:03.103Z,1009.73
2023-02-01T07:21:03.467Z,1009.76
2023-02-01T07:22:03.056Z,1009.69
2023-02-01T07:23:03.179Z,1009.76
2023-02-01T07:24:03.188Z,1009.64
2023-02-01T07:25:05.656Z,1009.89
2023-02-01T07:26:06.960Z,1009.83
2023-02-01T07:27:03.048Z,1009.88
2023-02-01T07:28:03.035Z,1009.85
2023-02-01T07:29:03.051Z,1009.79
2023-02-01T07:30:02.995Z,1009.90
2023-02-01T07:31:03.009Z,1009.85
2023-02-01T07:32:02.961Z,1009.78
2023-02-01T07:33:03.025Z,1009.90
2023-02-01T07:34:02.921Z,1009.85
2023-02-01T07:35:02.905Z,1009.94
2023-02-01T07:36:03.047Z,1009.88
2023-02-01T07:37:02.902Z,1009.87
2023-02-01T07:38:02.860Z,1009.86
2023-02-01T07:39:03.239Z,1009.90
2023-02-01T07:40:04.753Z,1009.96
2023-02-01T07:41:02.853Z,1009.98
2023-02-01T07:42:02.807Z,1010.04
2023-02-01T07:43:02.820Z,1009.97
2023-02-01T07:44:02.807Z,1010.06
2023-02-01T07:45:19.986Z,1010.02
2023-02-01T07:46:03.832Z,1010.03
2023-02-01T07:47:02.793Z,1010.08
2023-02-01T07:48:02.737Z,1009.95
2023-02-01T07:49:02.786Z,1010.07
2023-02-01T07:50:02.705Z,1010.07
2023-02-01T07:51:04.309Z,1010.02
2023-02-01T07:52:02.674Z,1010.04
2023-02-01T07:53:02.700Z,1010.02
2023-02-01T07:54:02.688Z,1010.00
2023-02-01T07:55:03.524Z,1010.04
2023-02-01T07:56:02.636Z,1010.11
2023-02-01T07:57:02.646Z,1009.95
2023-02-01T07:58:02.572Z,1009.99
2023-02-01T07:59:02.593Z,1009.91
2023-02-01T08:00:02.620Z,1009.82
2023-02-01T08:01:02.611Z,1009.86
2023-02-01T08:02:02.614Z,1010.01
2023-02-01T08:03:02.586Z,1009.89
2023-02-01T08:04:03.046Z,1010.01
2023-02-01T08:05:02.519Z,1010.02
2023-02-01T08:06:02.609Z,1010.10
2023-02-01T08:07:02.525Z,1010.09
2023-02-01T08:08:02.462Z,1009.92
2023-02-01T08:09:02.489Z,1010.05
2023-02-01T08:10:02.491Z,1010.02
2023-02-01T08:11:02.432Z,1010.11
2023-02-01T08:12:02.569Z,1010.19
2023-02-01T08:13:02.413Z,1010.21
2023-02-01T08:14:02.408Z,1010.27
2023-02-01T08:15:02.416Z,1010.23
2023-02-01T08:16:02.347Z,1010.19
2023-02-01T08:17:02.407Z,1010.27
2023-02-01T08:18:02.350Z,1010.21
2023-02-01T08:19:02.334Z,1010.27
2023-02-01T08:20:02.323Z,1010.23
2023-02-01T08:21:02.327Z,1010.33
2023-02-01T08:22:03.079Z,1010.20
2023-02-01T08:23:03.579Z,1010.15
2023-02-01T08:24:02.293Z,1010.13
2023-02-01T08:25:02.349Z,1010.21
2023-02-01T08:26:02.241Z,1010.12
2023-02-01T08:27:02.267Z,1010.19
2023-02-01T08:28:02.217Z,1010.23
2023-02-01T08:29:03.136Z,1009.98
2023-02-01T08:30:02.255Z,1010.26
2023-02-01T08:31:02.223Z,1010.25
2023-02-01T08:32:02.224Z,1010.24
2023-02-01T08:33:02.145Z,1010.19
2023-02-01T08:34:02.150Z,1010.23
2023-02-01T08:35:02.140Z,1010.16
2023-02-01T08:36:02.168Z,1009.97
2023-02-01T08:37:02.103Z,1010.13
2023-02-01T08:38:02.090Z,1010.11
2023-02-01T08:39:06.355Z,1010.14
2023-02-01T08:40:02.045Z,1010.17
2023-02-01T08:41:02.057Z,1010.17
2023-02-01T08:42:02.032Z,1010.31
2023-02-01T08:43:02.023Z,1010.09
2023-02-01T08:44:01.988Z,1010.34
2023-02-01T08:45:01.989Z,1010.18
2023-02-01T08:46:02.074Z,1010.22
2023-02-01T08:47:01.994Z,1010.17
2023-02-01T08:48:02.029Z,1010.19
2023-02-01T08:49:01.949Z,1010.19
2023-02-01T08:50:01.904Z,1010.17
2023-02-01T08:51:01.900Z,1010.23
2023-02-01T08:52:07.210Z,1010.22
2023-02-01T08:53:03.174Z,1010.20
2023-02-01T08:54:02.729Z,1010.45
2023-02-01T08:55:01.890Z,1010.34
2023-02-01T08:56:01.830Z,1010.32
2023-02-01T08:57:01.909Z,1010.30
2023-02-01T08:58:01.793Z,1010.22
2023-02-01T08:59:01.823Z,1010.26
2023-02-01T09:00:01.806Z,1010.30
2023-02-01T09:01:01.813Z,1010.42
2023-02-01T09:02:01.756Z,1010.46
2023-02-01T09:03:01.782Z,1010.40
2023-02-01T09:04:01.739Z,1010.45
2023-02-01T09:05:01.851Z,1010.47
2023-02-01T09:06:01.686Z,1010.35
2023-02-01T09:07:01.704Z,1010.38
2023-02-01T09:08:01.992Z,1010.59
2023-02-01T09:09:01.704Z,1010.37
2023-02-01T09:10:01.626Z,1010.36
2023-02-01T09:11:03.299Z,1010.38
2023-02-01T09:12:01.629Z,1010.38
2023-02-01T09:13:01.614Z,1010.34
2023-02-01T09:14:02.564Z,1010.29
2023-02-01T09:15:01.667Z,1010.40
2023-02-01T09:16:01.606Z,1010.28
2023-02-01T09:17:01.619Z,1010.38
2023-02-01T09:18:01.551Z,1010.29
2023-02-01T09:19:24.380Z,1010.42
2023-02-01T09:20:02.542Z,1010.30
2023-02-01T09:21:01.514Z,1010.40
2023-02-01T09:22:01.499Z,1010.27
2023-02-01T09:23:01.629Z,1010.30
2023-02-01T09:24:01.459Z,1010.20
2023-02-01T09:25:01.516Z,1010.20
2023-02-01T09:26:01.477Z,1010.19
2023-02-01T09:27:01.540Z,1010.23
2023-02-01T09:28:01.386Z,1010.21
2023-02-01T09:29:01.556Z,1010.18
2023-02-01T09:30:01.362Z,1010.26
2023-02-01T09:31:01.508Z,1010.24
2023-02-01T09:32:04.351Z,1010.17
2023-02-01T09:33:01.356Z,1010.20
2023-02-01T09:34:01.366Z,1010.23
2023-02-01T09:35:01.373Z,1010.11
2023-02-01T09:36:01.284Z,1010.15
2023-02-01T09:37:01.321Z,1010.15
2023-02-01T09:38:01.284Z,1010.18
2023-02-01T09:39:01.297Z,1010.07
2023-02-01T09:40:01.266Z,1010.06
2023-02-01T09:41:01.382Z,1010.09
2023-02-01T09:42:01.205Z,1010.06
2023-02-01T09:43:01.561Z,1010.04
2023-02-01T09:44:01.215Z,1010.19
2023-02-01T09:45:01.188Z,1010.10
2023-02-01T09:46:01.250Z,1010.05
2023-02-01T09:47:01.306Z,1010.13
2023-02-01T09:48:01.148Z,1010.23
2023-02-01T09:49:03.477Z,1010.12
2023-02-01T09:50:01.108Z,1010.20
2023-02-01T09:51:01.124Z,1010.13
2023-02-01T09:52:01.096Z,1010.12
2023-02-01T09:53:01.813Z,1010.12
2023-02-01T09:54:01.077Z,1010.04
2023-02-01T09:55:01.098Z,1010.20
2023-02-01T09:56:01.031Z,1010.24
2023-02-01T09:57:01.071Z,1010.05
2023-02-01T09:58:01.023Z,1010.09
2023-02-01T09:59:05.078Z,1010.17
2023-02-01T10:00:00.995Z,1010.17
2023-02-01T10:01:00.981Z,1010.19
2023-02-01T10:02:00.989Z,1009.96
2023-02-01T10:03:01.003Z,1010.13
2023-02-01T10:04:00.916Z,1010.09
2023-02-01T10:05:02.751Z,1010.01
2023-02-01T10:06:00.900Z,1010.00
2023-02-01T10:07:00.920Z,1009.99
2023-02-01T10:08:00.893Z,1009.94
2023-02-01T10:09:00.898Z,1010.09
2023-02-01T10:10:01.171Z,1009.88
2023-02-01T10:11:01.007Z,1010.07
2023-02-01T10:12:00.828Z,1010.07
2023-02-01T10:13:00.830Z,1010.01
2023-02-01T10:14:00.814Z,1009.99
2023-02-01T10:15:00.864Z,1009.97
2023-02-01T10:16:00.845Z,1010.06
2023-02-01T10:17:00.931Z,1009.99
2023-02-01T10:18:00.756Z,1009.93
2023-02-01T10:19:00.746Z,1010.00
2023-02-01T10:20:00.765Z,1010.11
2023-02-01T10:21:00.722Z,1010.03
2023-02-01T10:22:00.736Z,1010.05
2023-02-01T10:23:19.566Z,1009.92
2023-02-01T10:24:06.250Z,1010.01
2023-02-01T10:25:01.723Z,1009.67
2023-02-01T10:26:00.631Z,1009.86
2023-02-01T10:27:00.651Z,1009.90
2023-02-01T10:28:00.629Z,1009.95
2023-02-01T10:29:00.684Z,1009.98
2023-02-01T10:30:01.693Z,1010.08
2023-02-01T10:31:00.692Z,1010.05
2023-02-01T10:32:00.631Z,1010.00
2023-02-01T10:33:00.567Z,1009.97
2023-02-01T10:34:00.549Z,1010.15
2023-02-01T10:35:00.683Z,1010.00
2023-02-01T10:36:00.526Z,1009.93
2023-02-01T10:37:00.552Z,1009.97
2023-02-01T10:38:00.484Z,1010.02
2023-02-01T10:39:00.489Z,1009.93
2023-02-01T10:40:02.342Z,1010.01
2023-02-01T10:41:00.498Z,1009.95
2023-02-01T10:42:00.451Z,1009.78
2023-02-01T10:43:01.406Z,1009.89
2023-02-01T10:44:00.415Z,1009.72
2023-02-01T10:45:00.420Z,1009.78
2023-02-01T10:46:00.410Z,1009.91
2023-02-01T10:47:00.440Z,1009.73
2023-02-01T10:48:00.375Z,1009.77
2023-02-01T10:49:00.396Z,1009.65
2023-02-01T10:50:00.340Z,1009.66
2023-02-01T10:51:00.339Z,1009.68
2023-02-01T10:52:00.341Z,1009.68
2023-02-01T10:53:00.363Z,1009.66
2023-02-01T10:54:00.298Z,1009.63
2023-02-01T10:55:00.298Z,1009.58
2023-02-01T10:56:00.947Z,1009.52
2023-02-01T10:57:00.650Z,1009.55
2023-02-01T10:58:00.223Z,1009.53
2023-02-01T10:59:01.804Z,1009.52
2023-02-01T11:00:00.241Z,1009.52
2023-02-01T11:01:00.221Z,1009.59
2023-02-01T11:02:00.258Z,1009.50
2023-02-01T11:03:00.257Z,1009.56
2023-02-01T11:04:01.336Z,1009.46
2023-02-01T11:05:00.131Z,1009.61
2023-02-01T11:06:00.169Z,1009.52
2023-02-01T11:07:00.135Z,1009.37
2023-02-01T11:08:00.935Z,1009.35
2023-02-01T11:09:00.114Z,1009.27
2023-02-01T11:10:00.114Z,1009.28
2023-02-01T11:11:00.036Z,1009.31
2023-02-01T11:12:00.107Z,1009.39
2023-02-01T11:13:00.338Z,1009.41
2023-02-01T11:14:00.128Z,1009.31
2023-02-01T11:15:00.015Z,1009.29
2023-02-01T11:16:00.133Z,1009.20
2023-02-01T11:16:59.959Z,1009.17
2023-02-01T11:18:00.025Z,1008.95
2023-02-01T11:18:59.965Z,1008.94
2023-02-01T11:19:59.962Z,1009.06
2023-02-01T11:20:59.935Z,1008.93
2023-02-01T11:21:59.990Z,1009.10
2023-02-01T11:23:00.711Z,1009.03
2023-02-01T11:23:59.927Z,1009.04
2023-02-01T11:24:59.903Z,1008.79
2023-02-01T11:25:59.929Z,1008.84
2023-02-01T11:26:59.845Z,1008.77
2023-02-01T11:27:59.958Z,1008.80
2023-02-01T11:28:59.845Z,1008.75
2023-02-01T11:29:59.833Z,1008.67
2023-02-01T11:31:00.017Z,1008.59
2023-02-01T11:31:59.836Z,1008.72
2023-02-01T11:32:59.828Z,1008.93
2023-02-01T11:34:01.636Z,1008.76
2023-02-01T11:34:59.738Z,1008.68
2023-02-01T11:35:59.771Z,1008.57
2023-02-01T11:36:59.714Z,1008.69
2023-02-01T11:37:59.760Z,1008.66
2023-02-01T11:38:59.713Z,1008.73
2023-02-01T11:39:59.722Z,1008.68
2023-02-01T11:40:59.672Z,1008.74
2023-02-01T11:41:59.655Z,1008.65
2023-02-01T11:43:00.331Z,1008.56
2023-02-01T11:43:59.657Z,1008.65
2023-02-01T11:44:59.594Z,1008.81
2023-02-01T11:45:59.758Z,1008.54
2023-02-01T11:47:01.736Z,1008.57
2023-02-01T11:47:59.566Z,1008.47
2023-02-01T11:48:59.852Z,1008.35
2023-02-01T11:49:59.586Z,1008.54
2023-02-01T11:50:59.535Z,1008.35
2023-02-01T11:51:59.656Z,1008.42
2023-02-01T11:52:59.536Z,1008.18
2023-02-01T11:53:59.538Z,1008.29
2023-02-01T11:54:59.481Z,1008.42
2023-02-01T11:55:59.505Z,1008.71
2023-02-01T11:56:59.424Z,1008.55
2023-02-01T11:57:59.924Z,1008.50
2023-02-01T11:58:59.434Z,1008.32
2023-02-01T11:59:59.441Z,1008.38
2023-02-01T12:00:59.403Z,1008.43
2023-02-01T12:01:59.438Z,1008.37
2023-02-01T12:02:59.435Z,1008.41
2023-02-01T12:03:59.412Z,1008.30
2023-02-01T12:05:00.662Z,1008.30
2023-02-01T12:05:59.366Z,1008.45